Time;durP1;ratioP1;P1;durP2;ratioP2;P2;SDS_P1;SDS_P2;PMS_P1;PMS_P2;Temp;Humidity;BMP_temperature;BMP_pressure;BME280_temperature;BME280_humidity;BME280_pressure;Samples;Min_cycle;Max_cycle;Signal;HPM_P1;HPM_P2
2021/11/24 00:00:02;;;;;;;26.3;16.85;;;;;;;2.02;84.66895;95935.1;;;;
2021/11/24 00:01:04;;;;;;;26.3;16.85;;;;;;;2.02;84.66895;95935.1;;;;
2021/11/24 00:02:05;;;;;;;28.85;18.2;;;;;;;1.52;84.91504;95930.02;;;;
2021/11/24 00:03:05;;;;;;;28.85;18.2;;;;;;;1.52;84.91504;95930.02;;;;
2021/11/24 00:04:06;;;;;;;28.85;18.2;;;;;;;1.52;84.91504;95930.02;;;;
2021/11/24 00:05:06;;;;;;;28.85;18.2;;;;;;;1.52;84.91504;95930.02;;;;
2021/11/24 00:06:07;;;;;;;28.85;18.2;;;;;;;1.52;84.91504;95930.02;;;;
2021/11/24 00:07:08;;;;;;;28.85;18.2;;;;;;;1.52;84.91504;95930.02;;;;
2021/11/24 00:08:09;;;;;;;28.85;18.2;;;;;;;1.52;84.91504;95930.02;;;;
2021/11/24 00:09:10;;;;;;;28.85;18.2;;;;;;;1.52;84.91504;95930.02;;;;
2021/11/24 00:10:10;;;;;;;28.85;18.2;;;;;;;1.52;84.91504;95930.02;;;;
2021/11/24 00:11:13;;;;;;;28.85;18.2;;;;;;;1.52;84.91504;95930.02;;;;
2021/11/24 00:12:14;;;;;;;30.85;18.6;;;;;;;1.1;85.22754;95930.2;;;;
2021/11/24 00:13:14;;;;;;;30.85;18.6;;;;;;;1.1;85.22754;95930.2;;;;
2021/11/24 00:14:15;;;;;;;30.85;18.6;;;;;;;1.1;85.22754;95930.2;;;;
2021/11/24 00:15:15;;;;;;;30.85;18.6;;;;;;;1.1;85.22754;95930.2;;;;
2021/11/24 00:16:16;;;;;;;30.85;18.6;;;;;;;1.1;85.22754;95930.2;;;;
2021/11/24 00:17:17;;;;;;;30.85;18.6;;;;;;;1.1;85.22754;95930.2;;;;
2021/11/24 00:18:17;;;;;;;30.85;18.6;;;;;;;1.1;85.22754;95930.2;;;;
2021/11/24 00:19:18;;;;;;;30.85;18.6;;;;;;;1.1;85.22754;95930.2;;;;
2021/11/24 00:20:18;;;;;;;30.85;18.6;;;;;;;1.1;85.22754;95930.2;;;;
2021/11/24 00:21:19;;;;;;;30.85;18.6;;;;;;;1.1;85.22754;95930.2;;;;
2021/11/24 00:22:20;;;;;;;30.85;18.6;;;;;;;1.1;85.22754;95930.2;;;;
2021/11/24 00:23:20;;;;;;;34.90001;20.5;;;;;;;0.83;85.4873;95927.69;;;;
2021/11/24 00:24:21;;;;;;;34.90001;20.5;;;;;;;0.83;85.4873;95927.69;;;;
2021/11/24 00:25:21;;;;;;;34.90001;20.5;;;;;;;0.83;85.4873;95927.69;;;;
2021/11/24 00:26:22;;;;;;;34.90001;20.5;;;;;;;0.83;85.4873;95927.69;;;;
2021/11/24 00:27:23;;;;;;;34.90001;20.5;;;;;;;0.83;85.4873;95927.69;;;;
2021/11/24 00:28:24;;;;;;;34.90001;20.5;;;;;;;0.83;85.4873;95927.69;;;;
2021/11/24 00:29:24;;;;;;;34.90001;20.5;;;;;;;0.83;85.4873;95927.69;;;;
2021/11/24 00:30:25;;;;;;;34.90001;20.5;;;;;;;0.83;85.4873;95927.69;;;;
2021/11/24 00:31:27;;;;;;;34.90001;20.5;;;;;;;0.83;85.4873;95927.69;;;;
2021/11/24 00:32:28;;;;;;;34.90001;20.5;;;;;;;0.83;85.4873;95927.69;;;;
2021/11/24 00:33:29;;;;;;;34.90001;20.5;;;;;;;0.83;85.4873;95927.69;;;;
2021/11/24 00:34:29;;;;;;;39.6;21.85;;;;;;;0.71;85.75488;95924.57;;;;
2021/11/24 00:35:30;;;;;;;39.6;21.85;;;;;;;0.71;85.75488;95924.57;;;;
2021/11/24 00:36:30;;;;;;;39.6;21.85;;;;;;;0.71;85.75488;95924.57;;;;
2021/11/24 00:37:31;;;;;;;39.6;21.85;;;;;;;0.71;85.75488;95924.57;;;;
2021/11/24 00:38:32;;;;;;;39.6;21.85;;;;;;;0.71;85.75488;95924.57;;;;
2021/11/24 00:39:33;;;;;;;39.6;21.85;;;;;;;0.71;85.75488;95924.57;;;;
2021/11/24 00:40:33;;;;;;;39.6;21.85;;;;;;;0.71;85.75488;95924.57;;;;
2021/11/24 00:41:34;;;;;;;39.6;21.85;;;;;;;0.71;85.75488;95924.57;;;;
2021/11/24 00:42:34;;;;;;;39.6;21.85;;;;;;;0.71;85.75488;95924.57;;;;
2021/11/24 00:43:35;;;;;;;39.6;21.85;;;;;;;0.71;85.75488;95924.57;;;;
2021/11/24 00:44:37;;;;;;;42.75;23.4;;;;;;;0.71;85.82813;95905.49;;;;
2021/11/24 00:45:38;;;;;;;42.75;23.4;;;;;;;0.71;85.82813;95905.49;;;;
2021/11/24 00:46:39;;;;;;;42.75;23.4;;;;;;;0.71;85.82813;95905.49;;;;
2021/11/24 00:47:40;;;;;;;42.75;23.4;;;;;;;0.71;85.82813;95905.49;;;;
2021/11/24 00:48:41;;;;;;;42.75;23.4;;;;;;;0.71;85.82813;95905.49;;;;
2021/11/24 00:49:42;;;;;;;42.75;23.4;;;;;;;0.71;85.82813;95905.49;;;;
2021/11/24 00:50:42;;;;;;;42.75;23.4;;;;;;;0.71;85.82813;95905.49;;;;
2021/11/24 00:51:43;;;;;;;42.75;23.4;;;;;;;0.71;85.82813;95905.49;;;;
2021/11/24 00:52:45;;;;;;;42.75;23.4;;;;;;;0.71;85.82813;95905.49;;;;
2021/11/24 00:53:45;;;;;;;42.75;23.4;;;;;;;0.71;85.82813;95905.49;;;;
2021/11/24 00:54:46;;;;;;;42.75;23.4;;;;;;;0.71;85.82813;95905.49;;;;
2021/11/24 00:55:46;;;;;;;45.60001;24.35;;;;;;;0.78;85.81152;95900.76;;;;
2021/11/24 00:56:47;;;;;;;45.60001;24.35;;;;;;;0.78;85.81152;95900.76;;;;
2021/11/24 00:57:47;;;;;;;45.60001;24.35;;;;;;;0.78;85.81152;95900.76;;;;
2021/11/24 00:58:48;;;;;;;45.60001;24.35;;;;;;;0.78;85.81152;95900.76;;;;
2021/11/24 00:59:49;;;;;;;45.60001;24.35;;;;;;;0.78;85.81152;95900.76;;;;
2021/11/24 01:00:49;;;;;;;45.60001;24.35;;;;;;;0.78;85.81152;95900.76;;;;
2021/11/24 01:01:50;;;;;;;45.60001;24.35;;;;;;;0.78;85.81152;95900.76;;;;
2021/11/24 01:02:51;;;;;;;45.60001;24.35;;;;;;;0.78;85.81152;95900.76;;;;
2021/11/24 01:03:51;;;;;;;45.60001;24.35;;;;;;;0.78;85.81152;95900.76;;;;
2021/11/24 01:04:52;;;;;;;45.60001;24.35;;;;;;;0.78;85.81152;95900.76;;;;
2021/11/24 01:05:52;;;;;;;42.84999;23.2;;;;;;;0.89;85.86523;95903.55;;;;
2021/11/24 01:06:53;;;;;;;42.84999;23.2;;;;;;;0.89;85.86523;95903.55;;;;
2021/11/24 01:07:54;;;;;;;42.84999;23.2;;;;;;;0.89;85.86523;95903.55;;;;
2021/11/24 01:08:54;;;;;;;42.84999;23.2;;;;;;;0.89;85.86523;95903.55;;;;
2021/11/24 01:09:55;;;;;;;42.84999;23.2;;;;;;;0.89;85.86523;95903.55;;;;
2021/11/24 01:10:55;;;;;;;42.84999;23.2;;;;;;;0.89;85.86523;95903.55;;;;
2021/11/24 01:11:56;;;;;;;42.84999;23.2;;;;;;;0.89;85.86523;95903.55;;;;
2021/11/24 01:12:57;;;;;;;42.84999;23.2;;;;;;;0.89;85.86523;95903.55;;;;
2021/11/24 01:13:57;;;;;;;42.84999;23.2;;;;;;;0.89;85.86523;95903.55;;;;
2021/11/24 01:14:58;;;;;;;42.84999;23.2;;;;;;;0.89;85.86523;95903.55;;;;
2021/11/24 01:15:59;;;;;;;42.84999;23.2;;;;;;;0.89;85.86523;95903.55;;;;
2021/11/24 01:16:59;;;;;;;46.05001;25.05;;;;;;;1.03;85.92383;95906.98;;;;
2021/11/24 01:18:00;;;;;;;46.05001;25.05;;;;;;;1.03;85.92383;95906.98;;;;
2021/11/24 01:19:01;;;;;;;46.05001;25.05;;;;;;;1.03;85.92383;95906.98;;;;
2021/11/24 01:20:01;;;;;;;46.05001;25.05;;;;;;;1.03;85.92383;95906.98;;;;
2021/11/24 01:21:03;;;;;;;46.05001;25.05;;;;;;;1.03;85.92383;95906.98;;;;
2021/11/24 01:22:04;;;;;;;46.05001;25.05;;;;;;;1.03;85.92383;95906.98;;;;
2021/11/24 01:23:04;;;;;;;46.05001;25.05;;;;;;;1.03;85.92383;95906.98;;;;
2021/11/24 01:24:05;;;;;;;46.05001;25.05;;;;;;;1.03;85.92383;95906.98;;;;
2021/11/24 01:25:06;;;;;;;46.05001;25.05;;;;;;;1.03;85.92383;95906.98;;;;
2021/11/24 01:26:08;;;;;;;46.05001;25.05;;;;;;;1.03;85.92383;95906.98;;;;
2021/11/24 01:27:08;;;;;;;45.15001;23.75;;;;;;;1.17;85.91797;95897.97;;;;
2021/11/24 01:28:09;;;;;;;45.15001;23.75;;;;;;;1.17;85.91797;95897.97;;;;
2021/11/24 01:29:10;;;;;;;45.15001;23.75;;;;;;;1.17;85.91797;95897.97;;;;
2021/11/24 01:30:10;;;;;;;45.15001;23.75;;;;;;;1.17;85.91797;95897.97;;;;
2021/11/24 01:31:13;;;;;;;45.15001;23.75;;;;;;;1.17;85.91797;95897.97;;;;
2021/11/24 01:32:14;;;;;;;45.15001;23.75;;;;;;;1.17;85.91797;95897.97;;;;
2021/11/24 01:33:14;;;;;;;45.15001;23.75;;;;;;;1.17;85.91797;95897.97;;;;
2021/11/24 01:34:15;;;;;;;45.15001;23.75;;;;;;;1.17;85.91797;95897.97;;;;
2021/11/24 01:35:16;;;;;;;45.15001;23.75;;;;;;;1.17;85.91797;95897.97;;;;
2021/11/24 01:36:17;;;;;;;45.15001;23.75;;;;;;;1.17;85.91797;95897.97;;;;
2021/11/24 01:37:17;;;;;;;45.15001;23.75;;;;;;;1.17;85.91797;95897.97;;;;
2021/11/24 01:38:18;;;;;;;40.35;21.15;;;;;;;1.28;85.81641;95884.36;;;;
2021/11/24 01:39:18;;;;;;;40.35;21.15;;;;;;;1.28;85.81641;95884.36;;;;
2021/11/24 01:40:19;;;;;;;40.35;21.15;;;;;;;1.28;85.81641;95884.36;;;;
2021/11/24 01:41:20;;;;;;;40.35;21.15;;;;;;;1.28;85.81641;95884.36;;;;
2021/11/24 01:42:20;;;;;;;40.35;21.15;;;;;;;1.28;85.81641;95884.36;;;;
2021/11/24 01:43:21;;;;;;;40.35;21.15;;;;;;;1.28;85.81641;95884.36;;;;
2021/11/24 01:44:22;;;;;;;40.35;21.15;;;;;;;1.28;85.81641;95884.36;;;;
2021/11/24 01:45:25;;;;;;;40.35;21.15;;;;;;;1.28;85.81641;95884.36;;;;
2021/11/24 01:46:26;;;;;;;40.35;21.15;;;;;;;1.28;85.81641;95884.36;;;;
2021/11/24 01:47:28;;;;;;;40.35;21.15;;;;;;;1.28;85.81641;95884.36;;;;
2021/11/24 01:48:29;;;;;;;40.1;20;;;;;;;1.29;85.85059;95876.22;;;;
2021/11/24 01:49:30;;;;;;;40.1;20;;;;;;;1.29;85.85059;95876.22;;;;
2021/11/24 01:50:31;;;;;;;40.1;20;;;;;;;1.29;85.85059;95876.22;;;;
2021/11/24 01:51:33;;;;;;;40.1;20;;;;;;;1.29;85.85059;95876.22;;;;
2021/11/24 01:52:33;;;;;;;40.1;20;;;;;;;1.29;85.85059;95876.22;;;;
2021/11/24 01:53:34;;;;;;;40.1;20;;;;;;;1.29;85.85059;95876.22;;;;
2021/11/24 01:54:35;;;;;;;40.1;20;;;;;;;1.29;85.85059;95876.22;;;;
2021/11/24 01:55:35;;;;;;;40.1;20;;;;;;;1.29;85.85059;95876.22;;;;
2021/11/24 01:56:36;;;;;;;40.1;20;;;;;;;1.29;85.85059;95876.22;;;;
2021/11/24 01:57:38;;;;;;;40.1;20;;;;;;;1.29;85.85059;95876.22;;;;
2021/11/24 01:58:41;;;;;;;40.1;20;;;;;;;1.29;85.85059;95876.22;;;;
2021/11/24 01:59:43;;;;;;;38.6;20.05;;;;;;;1.26;86.01074;95876.14;;;;
2021/11/24 02:00:46;;;;;;;38.6;20.05;;;;;;;1.26;86.01074;95876.14;;;;
2021/11/24 02:01:47;;;;;;;38.6;20.05;;;;;;;1.26;86.01074;95876.14;;;;
2021/11/24 02:02:47;;;;;;;38.6;20.05;;;;;;;1.26;86.01074;95876.14;;;;
2021/11/24 02:03:49;;;;;;;38.6;20.05;;;;;;;1.26;86.01074;95876.14;;;;
2021/11/24 02:04:49;;;;;;;38.6;20.05;;;;;;;1.26;86.01074;95876.14;;;;
2021/11/24 02:05:50;;;;;;;38.6;20.05;;;;;;;1.26;86.01074;95876.14;;;;
2021/11/24 02:06:50;;;;;;;38.6;20.05;;;;;;;1.26;86.01074;95876.14;;;;
2021/11/24 02:07:52;;;;;;;38.6;20.05;;;;;;;1.26;86.01074;95876.14;;;;
2021/11/24 02:08:53;;;;;;;38.6;20.05;;;;;;;1.26;86.01074;95876.14;;;;
2021/11/24 02:09:53;;;;;;;40.65;20.3;;;;;;;1.29;86.18457;95853.19;;;;
2021/11/24 02:10:54;;;;;;;40.65;20.3;;;;;;;1.29;86.18457;95853.19;;;;
2021/11/24 02:11:57;;;;;;;40.65;20.3;;;;;;;1.29;86.18457;95853.19;;;;
2021/11/24 02:12:57;;;;;;;40.65;20.3;;;;;;;1.29;86.18457;95853.19;;;;
2021/11/24 02:13:58;;;;;;;40.65;20.3;;;;;;;1.29;86.18457;95853.19;;;;
2021/11/24 02:14:59;;;;;;;40.65;20.3;;;;;;;1.29;86.18457;95853.19;;;;
2021/11/24 02:16:00;;;;;;;40.65;20.3;;;;;;;1.29;86.18457;95853.19;;;;
2021/11/24 02:17:00;;;;;;;40.65;20.3;;;;;;;1.29;86.18457;95853.19;;;;
2021/11/24 02:18:01;;;;;;;40.65;20.3;;;;;;;1.29;86.18457;95853.19;;;;
2021/11/24 02:19:05;;;;;;;40.65;20.3;;;;;;;1.29;86.18457;95853.19;;;;
2021/11/24 02:20:10;;;;;;;40.65;20.3;;;;;;;1.29;86.18457;95853.19;;;;
2021/11/24 02:21:12;;;;;;;40.15;21.85;;;;;;;1.26;86.25195;95859.23;;;;
2021/11/24 02:22:12;;;;;;;40.15;21.85;;;;;;;1.26;86.25195;95859.23;;;;
2021/11/24 02:23:13;;;;;;;40.15;21.85;;;;;;;1.26;86.25195;95859.23;;;;
2021/11/24 02:24:15;;;;;;;40.15;21.85;;;;;;;1.26;86.25195;95859.23;;;;
2021/11/24 02:25:16;;;;;;;40.15;21.85;;;;;;;1.26;86.25195;95859.23;;;;
2021/11/24 02:26:18;;;;;;;40.15;21.85;;;;;;;1.26;86.25195;95859.23;;;;
2021/11/24 02:27:21;;;;;;;40.15;21.85;;;;;;;1.26;86.25195;95859.23;;;;
2021/11/24 02:28:22;;;;;;;40.15;21.85;;;;;;;1.26;86.25195;95859.23;;;;
2021/11/24 02:29:22;;;;;;;40.15;21.85;;;;;;;1.26;86.25195;95859.23;;;;
2021/11/24 02:30:23;;;;;;;40.15;21.85;;;;;;;1.26;86.25195;95859.23;;;;
2021/11/24 02:31:24;;;;;;;37.1;19.9;;;;;;;1.26;86.46094;95842.36;;;;
2021/11/24 02:32:26;;;;;;;37.1;19.9;;;;;;;1.26;86.46094;95842.36;;;;
2021/11/24 02:33:28;;;;;;;37.1;19.9;;;;;;;1.26;86.46094;95842.36;;;;
2021/11/24 02:34:29;;;;;;;37.1;19.9;;;;;;;1.26;86.46094;95842.36;;;;
2021/11/24 02:35:31;;;;;;;37.1;19.9;;;;;;;1.26;86.46094;95842.36;;;;
2021/11/24 02:36:31;;;;;;;37.1;19.9;;;;;;;1.26;86.46094;95842.36;;;;
2021/11/24 02:37:32;;;;;;;37.1;19.9;;;;;;;1.26;86.46094;95842.36;;;;
2021/11/24 02:38:33;;;;;;;37.1;19.9;;;;;;;1.26;86.46094;95842.36;;;;
2021/11/24 02:39:34;;;;;;;37.1;19.9;;;;;;;1.26;86.46094;95842.36;;;;
2021/11/24 02:40:35;;;;;;;37.1;19.9;;;;;;;1.26;86.46094;95842.36;;;;
2021/11/24 02:41:36;;;;;;;35.5;18.35;;;;;;;1.22;86.44141;95828.25;;;;
2021/11/24 02:42:36;;;;;;;35.5;18.35;;;;;;;1.22;86.44141;95828.25;;;;
2021/11/24 02:43:37;;;;;;;35.5;18.35;;;;;;;1.22;86.44141;95828.25;;;;
2021/11/24 02:44:39;;;;;;;35.5;18.35;;;;;;;1.22;86.44141;95828.25;;;;
2021/11/24 02:45:40;;;;;;;35.5;18.35;;;;;;;1.22;86.44141;95828.25;;;;
2021/11/24 02:46:41;;;;;;;35.5;18.35;;;;;;;1.22;86.44141;95828.25;;;;
2021/11/24 02:47:41;;;;;;;35.5;18.35;;;;;;;1.22;86.44141;95828.25;;;;
2021/11/24 02:48:42;;;;;;;35.5;18.35;;;;;;;1.22;86.44141;95828.25;;;;
2021/11/24 02:49:42;;;;;;;35.5;18.35;;;;;;;1.22;86.44141;95828.25;;;;
2021/11/24 02:50:47;;;;;;;35.5;18.35;;;;;;;1.22;86.44141;95828.25;;;;
2021/11/24 02:51:47;;;;;;;35.5;18.35;;;;;;;1.22;86.44141;95828.25;;;;
2021/11/24 02:52:48;;;;;;;31.5;17.4;;;;;;;1.12;86.59961;95797.41;;;;
2021/11/24 02:53:50;;;;;;;31.5;17.4;;;;;;;1.12;86.59961;95797.41;;;;
2021/11/24 02:54:50;;;;;;;31.5;17.4;;;;;;;1.12;86.59961;95797.41;;;;
2021/11/24 02:55:54;;;;;;;31.5;17.4;;;;;;;1.12;86.59961;95797.41;;;;
2021/11/24 02:56:55;;;;;;;31.5;17.4;;;;;;;1.12;86.59961;95797.41;;;;
2021/11/24 02:57:59;;;;;;;31.5;17.4;;;;;;;1.12;86.59961;95797.41;;;;
2021/11/24 02:58:59;;;;;;;31.5;17.4;;;;;;;1.12;86.59961;95797.41;;;;
2021/11/24 03:00:00;;;;;;;31.5;17.4;;;;;;;1.12;86.59961;95797.41;;;;
2021/11/24 03:01:00;;;;;;;31.5;17.4;;;;;;;1.12;86.59961;95797.41;;;;
2021/11/24 03:02:02;;;;;;;31.5;17.4;;;;;;;1.12;86.59961;95797.41;;;;
2021/11/24 03:03:03;;;;;;;37.60001;18.05;;;;;;;1.01;86.76367;95790.17;;;;
2021/11/24 03:04:04;;;;;;;37.60001;18.05;;;;;;;1.01;86.76367;95790.17;;;;
2021/11/24 03:05:04;;;;;;;37.60001;18.05;;;;;;;1.01;86.76367;95790.17;;;;
2021/11/24 03:06:06;;;;;;;37.60001;18.05;;;;;;;1.01;86.76367;95790.17;;;;
2021/11/24 03:07:06;;;;;;;37.60001;18.05;;;;;;;1.01;86.76367;95790.17;;;;
2021/11/24 03:08:07;;;;;;;37.60001;18.05;;;;;;;1.01;86.76367;95790.17;;;;
2021/11/24 03:09:07;;;;;;;37.60001;18.05;;;;;;;1.01;86.76367;95790.17;;;;
2021/11/24 03:10:08;;;;;;;37.60001;18.05;;;;;;;1.01;86.76367;95790.17;;;;
2021/11/24 03:11:09;;;;;;;37.60001;18.05;;;;;;;1.01;86.76367;95790.17;;;;
2021/11/24 03:12:10;;;;;;;37.60001;18.05;;;;;;;1.01;86.76367;95790.17;;;;
2021/11/24 03:13:12;;;;;;;37.60001;18.05;;;;;;;1.01;86.76367;95790.17;;;;
2021/11/24 03:14:12;;;;;;;33.3;17.4;;;;;;;1.02;86.98438;95779.88;;;;
2021/11/24 03:15:13;;;;;;;33.3;17.4;;;;;;;1.02;86.98438;95779.88;;;;
2021/11/24 03:16:13;;;;;;;33.3;17.4;;;;;;;1.02;86.98438;95779.88;;;;
2021/11/24 03:17:14;;;;;;;33.3;17.4;;;;;;;1.02;86.98438;95779.88;;;;
2021/11/24 03:18:14;;;;;;;33.3;17.4;;;;;;;1.02;86.98438;95779.88;;;;
2021/11/24 03:19:15;;;;;;;33.3;17.4;;;;;;;1.02;86.98438;95779.88;;;;
2021/11/24 03:20:15;;;;;;;33.3;17.4;;;;;;;1.02;86.98438;95779.88;;;;
2021/11/24 03:21:16;;;;;;;33.3;17.4;;;;;;;1.02;86.98438;95779.88;;;;
2021/11/24 03:22:22;;;;;;;33.3;17.4;;;;;;;1.02;86.98438;95779.88;;;;
2021/11/24 03:23:23;;;;;;;33.3;17.4;;;;;;;1.02;86.98438;95779.88;;;;
2021/11/24 03:24:23;;;;;;;41.45;19.9;;;;;;;1.05;86.99023;95755.62;;;;
2021/11/24 03:25:24;;;;;;;41.45;19.9;;;;;;;1.05;86.99023;95755.62;;;;
2021/11/24 03:26:25;;;;;;;41.45;19.9;;;;;;;1.05;86.99023;95755.62;;;;
2021/11/24 03:27:25;;;;;;;41.45;19.9;;;;;;;1.05;86.99023;95755.62;;;;
2021/11/24 03:28:29;;;;;;;41.45;19.9;;;;;;;1.05;86.99023;95755.62;;;;
2021/11/24 03:29:30;;;;;;;41.45;19.9;;;;;;;1.05;86.99023;95755.62;;;;
2021/11/24 03:30:30;;;;;;;41.45;19.9;;;;;;;1.05;86.99023;95755.62;;;;
2021/11/24 03:31:32;;;;;;;41.45;19.9;;;;;;;1.05;86.99023;95755.62;;;;
2021/11/24 03:32:33;;;;;;;41.45;19.9;;;;;;;1.05;86.99023;95755.62;;;;
2021/11/24 03:33:34;;;;;;;41.45;19.9;;;;;;;1.05;86.99023;95755.62;;;;
2021/11/24 03:34:35;;;;;;;41.45;19.9;;;;;;;1.05;86.99023;95755.62;;;;
2021/11/24 03:35:35;;;;;;;30.5;16.35;;;;;;;1.11;87.06641;95754.55;;;;
2021/11/24 03:36:36;;;;;;;30.5;16.35;;;;;;;1.11;87.06641;95754.55;;;;
2021/11/24 03:37:37;;;;;;;30.5;16.35;;;;;;;1.11;87.06641;95754.55;;;;
2021/11/24 03:38:38;;;;;;;30.5;16.35;;;;;;;1.11;87.06641;95754.55;;;;
2021/11/24 03:39:38;;;;;;;30.5;16.35;;;;;;;1.11;87.06641;95754.55;;;;
2021/11/24 03:40:40;;;;;;;30.5;16.35;;;;;;;1.11;87.06641;95754.55;;;;
2021/11/24 03:41:40;;;;;;;30.5;16.35;;;;;;;1.11;87.06641;95754.55;;;;
2021/11/24 03:42:44;;;;;;;30.5;16.35;;;;;;;1.11;87.06641;95754.55;;;;
2021/11/24 03:43:44;;;;;;;30.5;16.35;;;;;;;1.11;87.06641;95754.55;;;;
2021/11/24 03:44:45;;;;;;;30.5;16.35;;;;;;;1.11;87.06641;95754.55;;;;
2021/11/24 03:45:46;;;;;;;35.2;17;;;;;;;1.2;86.95898;95741.58;;;;
2021/11/24 03:46:47;;;;;;;35.2;17;;;;;;;1.2;86.95898;95741.58;;;;
2021/11/24 03:47:47;;;;;;;35.2;17;;;;;;;1.2;86.95898;95741.58;;;;
2021/11/24 03:48:48;;;;;;;35.2;17;;;;;;;1.2;86.95898;95741.58;;;;
2021/11/24 03:49:49;;;;;;;35.2;17;;;;;;;1.2;86.95898;95741.58;;;;
2021/11/24 03:50:49;;;;;;;35.2;17;;;;;;;1.2;86.95898;95741.58;;;;
2021/11/24 03:51:51;;;;;;;35.2;17;;;;;;;1.2;86.95898;95741.58;;;;
2021/11/24 03:52:51;;;;;;;35.2;17;;;;;;;1.2;86.95898;95741.58;;;;
2021/11/24 03:53:52;;;;;;;35.2;17;;;;;;;1.2;86.95898;95741.58;;;;
2021/11/24 03:54:52;;;;;;;35.2;17;;;;;;;1.2;86.95898;95741.58;;;;
2021/11/24 03:55:53;;;;;;;35.2;17;;;;;;;1.2;86.95898;95741.58;;;;
2021/11/24 03:56:54;;;;;;;30.45;15.75;;;;;;;1.3;86.83398;95739.98;;;;
2021/11/24 03:57:54;;;;;;;30.45;15.75;;;;;;;1.3;86.83398;95739.98;;;;
2021/11/24 03:58:55;;;;;;;30.45;15.75;;;;;;;1.3;86.83398;95739.98;;;;
2021/11/24 03:59:56;;;;;;;30.45;15.75;;;;;;;1.3;86.83398;95739.98;;;;
2021/11/24 04:00:56;;;;;;;30.45;15.75;;;;;;;1.3;86.83398;95739.98;;;;
2021/11/24 04:01:57;;;;;;;30.45;15.75;;;;;;;1.3;86.83398;95739.98;;;;
2021/11/24 04:02:57;;;;;;;30.45;15.75;;;;;;;1.3;86.83398;95739.98;;;;
2021/11/24 04:03:58;;;;;;;30.45;15.75;;;;;;;1.3;86.83398;95739.98;;;;
2021/11/24 04:04:59;;;;;;;30.45;15.75;;;;;;;1.3;86.83398;95739.98;;;;
2021/11/24 04:05:59;;;;;;;30.45;15.75;;;;;;;1.3;86.83398;95739.98;;;;
2021/11/24 04:07:01;;;;;;;30;15.6;;;;;;;1.33;86.7998;95734.31;;;;
2021/11/24 04:08:02;;;;;;;30;15.6;;;;;;;1.33;86.7998;95734.31;;;;
2021/11/24 04:09:03;;;;;;;30;15.6;;;;;;;1.33;86.7998;95734.31;;;;
2021/11/24 04:10:04;;;;;;;30;15.6;;;;;;;1.33;86.7998;95734.31;;;;
2021/11/24 04:11:07;;;;;;;30;15.6;;;;;;;1.33;86.7998;95734.31;;;;
2021/11/24 04:12:07;;;;;;;30;15.6;;;;;;;1.33;86.7998;95734.31;;;;
2021/11/24 04:13:08;;;;;;;30;15.6;;;;;;;1.33;86.7998;95734.31;;;;
2021/11/24 04:14:09;;;;;;;30;15.6;;;;;;;1.33;86.7998;95734.31;;;;
2021/11/24 04:15:09;;;;;;;30;15.6;;;;;;;1.33;86.7998;95734.31;;;;
2021/11/24 04:16:13;;;;;;;30;15.6;;;;;;;1.33;86.7998;95734.31;;;;
2021/11/24 04:17:15;;;;;;;30;15.6;;;;;;;1.33;86.7998;95734.31;;;;
2021/11/24 04:18:15;;;;;;;29.1;16.2;;;;;;;1.31;86.79395;95734.97;;;;
2021/11/24 04:19:16;;;;;;;29.1;16.2;;;;;;;1.31;86.79395;95734.97;;;;
2021/11/24 04:20:16;;;;;;;29.1;16.2;;;;;;;1.31;86.79395;95734.97;;;;
2021/11/24 04:21:19;;;;;;;29.1;16.2;;;;;;;1.31;86.79395;95734.97;;;;
2021/11/24 04:22:21;;;;;;;29.1;16.2;;;;;;;1.31;86.79395;95734.97;;;;
2021/11/24 04:23:21;;;;;;;29.1;16.2;;;;;;;1.31;86.79395;95734.97;;;;
2021/11/24 04:24:25;;;;;;;29.1;16.2;;;;;;;1.31;86.79395;95734.97;;;;
2021/11/24 04:25:26;;;;;;;29.1;16.2;;;;;;;1.31;86.79395;95734.97;;;;
2021/11/24 04:26:26;;;;;;;29.1;16.2;;;;;;;1.31;86.79395;95734.97;;;;
2021/11/24 04:27:27;;;;;;;29.1;16.2;;;;;;;1.31;86.79395;95734.97;;;;
2021/11/24 04:28:27;;;;;;;31.3;17.3;;;;;;;1.29;86.97754;95725.51;;;;
2021/11/24 04:29:28;;;;;;;31.3;17.3;;;;;;;1.29;86.97754;95725.51;;;;
2021/11/24 04:30:29;;;;;;;31.3;17.3;;;;;;;1.29;86.97754;95725.51;;;;
2021/11/24 04:31:29;;;;;;;31.3;17.3;;;;;;;1.29;86.97754;95725.51;;;;
2021/11/24 04:32:30;;;;;;;31.3;17.3;;;;;;;1.29;86.97754;95725.51;;;;
2021/11/24 04:33:30;;;;;;;31.3;17.3;;;;;;;1.29;86.97754;95725.51;;;;
2021/11/24 04:34:31;;;;;;;31.3;17.3;;;;;;;1.29;86.97754;95725.51;;;;
2021/11/24 04:35:31;;;;;;;31.3;17.3;;;;;;;1.29;86.97754;95725.51;;;;
2021/11/24 04:36:32;;;;;;;31.3;17.3;;;;;;;1.29;86.97754;95725.51;;;;
2021/11/24 04:37:33;;;;;;;31.3;17.3;;;;;;;1.29;86.97754;95725.51;;;;
2021/11/24 04:38:33;;;;;;;31.3;17.3;;;;;;;1.29;86.97754;95725.51;;;;
2021/11/24 04:39:34;;;;;;;31.55;16.3;;;;;;;1.28;87.11133;95732.24;;;;
2021/11/24 04:40:35;;;;;;;31.55;16.3;;;;;;;1.28;87.11133;95732.24;;;;
2021/11/24 04:41:36;;;;;;;31.55;16.3;;;;;;;1.28;87.11133;95732.24;;;;
2021/11/24 04:42:38;;;;;;;31.55;16.3;;;;;;;1.28;87.11133;95732.24;;;;
2021/11/24 04:43:42;;;;;;;31.55;16.3;;;;;;;1.28;87.11133;95732.24;;;;
2021/11/24 04:44:42;;;;;;;31.55;16.3;;;;;;;1.28;87.11133;95732.24;;;;
2021/11/24 04:45:43;;;;;;;31.55;16.3;;;;;;;1.28;87.11133;95732.24;;;;
2021/11/24 04:46:44;;;;;;;31.55;16.3;;;;;;;1.28;87.11133;95732.24;;;;
2021/11/24 04:47:45;;;;;;;31.55;16.3;;;;;;;1.28;87.11133;95732.24;;;;
2021/11/24 04:48:45;;;;;;;31.55;16.3;;;;;;;1.28;87.11133;95732.24;;;;
2021/11/24 04:49:46;;;;;;;28.45;15.5;;;;;;;1.35;87.10547;95719.02;;;;
2021/11/24 04:50:46;;;;;;;28.45;15.5;;;;;;;1.35;87.10547;95719.02;;;;
2021/11/24 04:51:48;;;;;;;28.45;15.5;;;;;;;1.35;87.10547;95719.02;;;;
2021/11/24 04:52:49;;;;;;;28.45;15.5;;;;;;;1.35;87.10547;95719.02;;;;
2021/11/24 04:53:49;;;;;;;28.45;15.5;;;;;;;1.35;87.10547;95719.02;;;;
2021/11/24 04:54:50;;;;;;;28.45;15.5;;;;;;;1.35;87.10547;95719.02;;;;
2021/11/24 04:55:51;;;;;;;28.45;15.5;;;;;;;1.35;87.10547;95719.02;;;;
2021/11/24 04:56:52;;;;;;;28.45;15.5;;;;;;;1.35;87.10547;95719.02;;;;
2021/11/24 04:57:52;;;;;;;28.45;15.5;;;;;;;1.35;87.10547;95719.02;;;;
2021/11/24 04:58:54;;;;;;;28.45;15.5;;;;;;;1.35;87.10547;95719.02;;;;
2021/11/24 04:59:55;;;;;;;28.45;15.5;;;;;;;1.35;87.10547;95719.02;;;;
2021/11/24 05:00:55;;;;;;;30.85;15.4;;;;;;;1.4;86.94824;95716.67;;;;
2021/11/24 05:01:56;;;;;;;30.85;15.4;;;;;;;1.4;86.94824;95716.67;;;;
2021/11/24 05:02:57;;;;;;;30.85;15.4;;;;;;;1.4;86.94824;95716.67;;;;
2021/11/24 05:03:57;;;;;;;30.85;15.4;;;;;;;1.4;86.94824;95716.67;;;;
2021/11/24 05:04:58;;;;;;;30.85;15.4;;;;;;;1.4;86.94824;95716.67;;;;
2021/11/24 05:05:59;;;;;;;30.85;15.4;;;;;;;1.4;86.94824;95716.67;;;;
2021/11/24 05:07:00;;;;;;;30.85;15.4;;;;;;;1.4;86.94824;95716.67;;;;
2021/11/24 05:08:02;;;;;;;30.85;15.4;;;;;;;1.4;86.94824;95716.67;;;;
2021/11/24 05:09:03;;;;;;;30.85;15.4;;;;;;;1.4;86.94824;95716.67;;;;
2021/11/24 05:10:05;;;;;;;30.85;15.4;;;;;;;1.4;86.94824;95716.67;;;;
2021/11/24 05:11:07;;;;;;;26.9;14.95;;;;;;;1.44;86.9248;95727.31;;;;
2021/11/24 05:12:08;;;;;;;26.9;14.95;;;;;;;1.44;86.9248;95727.31;;;;
2021/11/24 05:13:09;;;;;;;26.9;14.95;;;;;;;1.44;86.9248;95727.31;;;;
2021/11/24 05:14:14;;;;;;;26.9;14.95;;;;;;;1.44;86.9248;95727.31;;;;
2021/11/24 05:15:19;;;;;;;26.9;14.95;;;;;;;1.44;86.9248;95727.31;;;;
2021/11/24 05:16:22;;;;;;;26.9;14.95;;;;;;;1.44;86.9248;95727.31;;;;
2021/11/24 05:17:25;;;;;;;26.9;14.95;;;;;;;1.44;86.9248;95727.31;;;;
2021/11/24 05:18:29;;;;;;;26.9;14.95;;;;;;;1.44;86.9248;95727.31;;;;
2021/11/24 05:19:32;;;;;;;26.9;14.95;;;;;;;1.44;86.9248;95727.31;;;;
2021/11/24 05:20:33;;;;;;;26.9;14.95;;;;;;;1.44;86.9248;95727.31;;;;
2021/11/24 05:21:36;;;;;;;26.9;14.95;;;;;;;1.44;86.9248;95727.31;;;;
2021/11/24 05:22:37;;;;;;;26.25;14.65;;;;;;;1.47;86.87891;95720.83;;;;
2021/11/24 05:23:40;;;;;;;26.25;14.65;;;;;;;1.47;86.87891;95720.83;;;;
2021/11/24 05:24:41;;;;;;;26.25;14.65;;;;;;;1.47;86.87891;95720.83;;;;
2021/11/24 05:25:42;;;;;;;26.25;14.65;;;;;;;1.47;86.87891;95720.83;;;;
2021/11/24 05:26:42;;;;;;;26.25;14.65;;;;;;;1.47;86.87891;95720.83;;;;
2021/11/24 05:27:43;;;;;;;26.25;14.65;;;;;;;1.47;86.87891;95720.83;;;;
2021/11/24 05:28:44;;;;;;;26.25;14.65;;;;;;;1.47;86.87891;95720.83;;;;
2021/11/24 05:29:44;;;;;;;26.25;14.65;;;;;;;1.47;86.87891;95720.83;;;;
2021/11/24 05:30:45;;;;;;;26.25;14.65;;;;;;;1.47;86.87891;95720.83;;;;
2021/11/24 05:31:46;;;;;;;26.25;14.65;;;;;;;1.47;86.87891;95720.83;;;;
2021/11/24 05:32:46;;;;;;;26.55;14.45;;;;;;;1.46;86.78027;95718.77;;;;
2021/11/24 05:33:47;;;;;;;26.55;14.45;;;;;;;1.46;86.78027;95718.77;;;;
2021/11/24 05:34:48;;;;;;;26.55;14.45;;;;;;;1.46;86.78027;95718.77;;;;
2021/11/24 05:35:49;;;;;;;26.55;14.45;;;;;;;1.46;86.78027;95718.77;;;;
2021/11/24 05:36:49;;;;;;;26.55;14.45;;;;;;;1.46;86.78027;95718.77;;;;
2021/11/24 05:37:50;;;;;;;26.55;14.45;;;;;;;1.46;86.78027;95718.77;;;;
2021/11/24 05:38:52;;;;;;;26.55;14.45;;;;;;;1.46;86.78027;95718.77;;;;
2021/11/24 05:39:53;;;;;;;26.55;14.45;;;;;;;1.46;86.78027;95718.77;;;;
2021/11/24 05:40:53;;;;;;;26.55;14.45;;;;;;;1.46;86.78027;95718.77;;;;
2021/11/24 05:41:54;;;;;;;26.55;14.45;;;;;;;1.46;86.78027;95718.77;;;;
2021/11/24 05:42:55;;;;;;;26.55;14.45;;;;;;;1.46;86.78027;95718.77;;;;
2021/11/24 05:44:04;;;;;;;25.6;14.15;;;;;;;1.44;86.81055;95710.93;;;;